sensor_id;sensor_type;location;lat;lon;timestamp;temperature;humidity
37478;DHT22;23334;54.316;10.182;2023-06-14T00:04:00;12.90;99.90
37478;DHT22;23334;54.316;10.182;2023-06-14T00:13:46;13.00;99.90
37478;DHT22;23334;54.316;10.182;2023-06-14T00:16:11;13.00;99.90
37478;DHT22;23334;54.316;10.182;2023-06-14T00:18:37;12.90;99.90
37478;DHT22;23334;54.316;10.182;2023-06-14T00:21:03;12.90;99.90
37478;DHT22;23334;54.316;10.182;2023-06-14T00:23:29;12.90;99.90
37478;DHT22;23334;54.316;10.182;2023-06-14T00:33:13;12.90;99.90
37478;DHT22;23334;54.316;10.182;2023-06-14T00:35:38;12.90;99.90
37478;DHT22;23334;54.316;10.182;2023-06-14T00:38:04;12.80;99.90
37478;DHT22;23334;54.316;10.182;2023-06-14T00:40:29;12.70;99.90
37478;DHT22;23334;54.316;10.182;2023-06-14T00:47:47;12.70;99.90
37478;DHT22;23334;54.316;10.182;2023-06-14T00:50:16;12.70;99.90
37478;DHT22;23334;54.316;10.182;2023-06-14T00:52:42;12.60;99.90
37478;DHT22;23334;54.316;10.182;2023-06-14T00:57:34;12.60;99.90
37478;DHT22;23334;54.316;10.182;2023-06-14T01:02:30;12.50;99.90
37478;DHT22;23334;54.316;10.182;2023-06-14T01:10:35;12.40;99.90
37478;DHT22;23334;54.316;10.182;2023-06-14T01:13:50;12.30;99.90
37478;DHT22;23334;54.316;10.182;2023-06-14T01:18:17;12.30;99.90
37478;DHT22;23334;54.316;10.182;2023-06-14T01:20:44;12.30;99.90
37478;DHT22;23334;54.316;10.182;2023-06-14T01:23:20;12.30;99.90
37478;DHT22;23334;54.316;10.182;2023-06-14T01:25:47;12.40;99.90
37478;DHT22;23334;54.316;10.182;2023-06-14T01:28:14;12.40;99.90
37478;DHT22;23334;54.316;10.182;2023-06-14T01:30:44;12.40;99.90
37478;DHT22;23334;54.316;10.182;2023-06-14T01:33:19;12.30;99.90
37478;DHT22;23334;54.316;10.182;2023-06-14T01:35:48;12.30;99.90
37478;DHT22;23334;54.316;10.182;2023-06-14T01:38:15;12.30;99.90
37478;DHT22;23334;54.316;10.182;2023-06-14T01:40:43;12.20;99.90
37478;DHT22;23334;54.316;10.182;2023-06-14T01:43:11;12.20;99.90
37478;DHT22;23334;54.316;10.182;2023-06-14T01:45:39;12.20;99.90
37478;DHT22;23334;54.316;10.182;2023-06-14T01:48:05;12.20;99.90
37478;DHT22;23334;54.316;10.182;2023-06-14T01:50:31;12.10;99.90
37478;DHT22;23334;54.316;10.182;2023-06-14T01:52:57;12.10;99.90
37478;DHT22;23334;54.316;10.182;2023-06-14T01:55:23;12.00;99.90
37478;DHT22;23334;54.316;10.182;2023-06-14T02:00:16;12.00;99.90
37478;DHT22;23334;54.316;10.182;2023-06-14T02:02:43;12.00;99.90
37478;DHT22;23334;54.316;10.182;2023-06-14T02:05:09;12.00;99.90
37478;DHT22;23334;54.316;10.182;2023-06-14T02:07:35;12.00;99.90
37478;DHT22;23334;54.316;10.182;2023-06-14T02:10:02;11.90;99.90
37478;DHT22;23334;54.316;10.182;2023-06-14T02:12:27;11.90;99.90
37478;DHT22;23334;54.316;10.182;2023-06-14T02:14:53;11.90;99.90
37478;DHT22;23334;54.316;10.182;2023-06-14T02:24:40;11.90;99.90
37478;DHT22;23334;54.316;10.182;2023-06-14T02:27:06;11.80;99.90
37478;DHT22;23334;54.316;10.182;2023-06-14T02:29:32;11.80;99.90
37478;DHT22;23334;54.316;10.182;2023-06-14T02:31:57;11.80;99.90
37478;DHT22;23334;54.316;10.182;2023-06-14T02:36:48;11.80;99.90
37478;DHT22;23334;54.316;10.182;2023-06-14T02:41:41;11.70;99.90
37478;DHT22;23334;54.316;10.182;2023-06-14T02:46:33;11.70;99.90
37478;DHT22;23334;54.316;10.182;2023-06-14T02:48:59;11.70;99.90
37478;DHT22;23334;54.316;10.182;2023-06-14T02:51:24;11.60;99.90
37478;DHT22;23334;54.316;10.182;2023-06-14T02:53:50;11.60;99.90
37478;DHT22;23334;54.316;10.182;2023-06-14T02:56:16;11.60;99.90
37478;DHT22;23334;54.316;10.182;2023-06-14T03:01:08;11.70;99.90
37478;DHT22;23334;54.316;10.182;2023-06-14T03:06:03;11.60;99.90
37478;DHT22;23334;54.316;10.182;2023-06-14T03:08:30;11.70;99.90
37478;DHT22;23334;54.316;10.182;2023-06-14T03:11:00;11.70;99.90
37478;DHT22;23334;54.316;10.182;2023-06-14T03:13:27;11.70;99.90
37478;DHT22;23334;54.316;10.182;2023-06-14T03:15:57;11.70;99.90
37478;DHT22;23334;54.316;10.182;2023-06-14T03:18:23;11.70;99.90
37478;DHT22;23334;54.316;10.182;2023-06-14T03:20:48;11.70;99.90
37478;DHT22;23334;54.316;10.182;2023-06-14T03:28:07;11.80;99.90
37478;DHT22;23334;54.316;10.182;2023-06-14T03:35:30;11.80;99.90
37478;DHT22;23334;54.316;10.182;2023-06-14T03:40:21;11.80;99.90
37478;DHT22;23334;54.316;10.182;2023-06-14T03:45:13;11.90;99.90
37478;DHT22;23334;54.316;10.182;2023-06-14T03:50:05;12.00;99.90
37478;DHT22;23334;54.316;10.182;2023-06-14T03:52:31;12.00;99.90
37478;DHT22;23334;54.316;10.182;2023-06-14T03:54:56;12.00;99.90
37478;DHT22;23334;54.316;10.182;2023-06-14T03:57:23;12.10;99.90
37478;DHT22;23334;54.316;10.182;2023-06-14T04:04:42;12.30;99.90
37478;DHT22;23334;54.316;10.182;2023-06-14T04:07:10;12.40;99.90
37478;DHT22;23334;54.316;10.182;2023-06-14T04:14:28;12.60;99.90
37478;DHT22;23334;54.316;10.182;2023-06-14T04:19:20;12.80;99.90
37478;DHT22;23334;54.316;10.182;2023-06-14T04:26:39;13.10;99.90
37478;DHT22;23334;54.316;10.182;2023-06-14T04:29:05;13.20;99.90
37478;DHT22;23334;54.316;10.182;2023-06-14T04:34:03;13.30;99.90
37478;DHT22;23334;54.316;10.182;2023-06-14T04:36:32;13.40;99.90
37478;DHT22;23334;54.316;10.182;2023-06-14T04:46:22;13.90;99.90
37478;DHT22;23334;54.316;10.182;2023-06-14T04:48:47;14.00;99.90
37478;DHT22;23334;54.316;10.182;2023-06-14T04:51:15;14.00;99.90
37478;DHT22;23334;54.316;10.182;2023-06-14T05:01:01;14.50;99.90
37478;DHT22;23334;54.316;10.182;2023-06-14T05:05:55;14.90;99.90
37478;DHT22;23334;54.316;10.182;2023-06-14T05:10:51;15.00;99.90
37478;DHT22;23334;54.316;10.182;2023-06-14T05:13:17;15.20;99.90
37478;DHT22;23334;54.316;10.182;2023-06-14T05:15:43;15.20;99.90
37478;DHT22;23334;54.316;10.182;2023-06-14T05:20:35;15.50;99.90
37478;DHT22;23334;54.316;10.182;2023-06-14T05:25:28;15.70;99.90
37478;DHT22;23334;54.316;10.182;2023-06-14T05:27:54;15.80;99.90
37478;DHT22;23334;54.316;10.182;2023-06-14T05:32:45;16.00;99.90
37478;DHT22;23334;54.316;10.182;2023-06-14T05:35:11;16.20;99.90
37478;DHT22;23334;54.316;10.182;2023-06-14T05:37:36;16.40;99.90
37478;DHT22;23334;54.316;10.182;2023-06-14T05:40:03;16.70;99.90
37478;DHT22;23334;54.316;10.182;2023-06-14T05:42:32;17.20;99.90
37478;DHT22;23334;54.316;10.182;2023-06-14T05:44:58;17.90;99.90
37478;DHT22;23334;54.316;10.182;2023-06-14T05:47:24;18.80;99.90
37478;DHT22;23334;54.316;10.182;2023-06-14T06:01:58;26.90;99.90
37478;DHT22;23334;54.316;10.182;2023-06-14T06:06:50;28.00;99.90
37478;DHT22;23334;54.316;10.182;2023-06-14T06:09:16;28.60;99.90
37478;DHT22;23334;54.316;10.182;2023-06-14T06:11:41;29.40;99.10
37478;DHT22;23334;54.316;10.182;2023-06-14T06:14:07;29.80;95.70
37478;DHT22;23334;54.316;10.182;2023-06-14T06:18:58;30.00;92.50
37478;DHT22;23334;54.316;10.182;2023-06-14T06:21:24;30.60;91.90
37478;DHT22;23334;54.316;10.182;2023-06-14T06:26:16;31.20;86.10
37478;DHT22;23334;54.316;10.182;2023-06-14T06:28:41;32.00;85.50
37478;DHT22;23334;54.316;10.182;2023-06-14T06:31:07;32.70;79.80
37478;DHT22;23334;54.316;10.182;2023-06-14T06:35:58;32.30;77.50
37478;DHT22;23334;54.316;10.182;2023-06-14T06:45:43;34.40;66.50
37478;DHT22;23334;54.316;10.182;2023-06-14T06:48:08;34.60;66.10
37478;DHT22;23334;54.316;10.182;2023-06-14T06:50:38;34.80;61.60
37478;DHT22;23334;54.316;10.182;2023-06-14T07:22:22;37.80;48.70
37478;DHT22;23334;54.316;10.182;2023-06-14T07:24:47;37.50;49.00
37478;DHT22;23334;54.316;10.182;2023-06-14T07:27:13;38.30;47.00
37478;DHT22;23334;54.316;10.182;2023-06-14T07:41:49;37.80;45.40
37478;DHT22;23334;54.316;10.182;2023-06-14T07:53:59;38.50;44.00
37478;DHT22;23334;54.316;10.182;2023-06-14T07:56:26;38.70;43.90
37478;DHT22;23334;54.316;10.182;2023-06-14T07:58:51;38.90;44.00
37478;DHT22;23334;54.316;10.182;2023-06-14T08:06:11;39.30;42.10
37478;DHT22;23334;54.316;10.182;2023-06-14T08:08:37;39.70;41.80
37478;DHT22;23334;54.316;10.182;2023-06-14T08:11:02;39.40;42.30
37478;DHT22;23334;54.316;10.182;2023-06-14T08:18:20;39.60;40.80
37478;DHT22;23334;54.316;10.182;2023-06-14T08:25:38;39.10;38.70
37478;DHT22;23334;54.316;10.182;2023-06-14T08:35:22;39.00;40.30
37478;DHT22;23334;54.316;10.182;2023-06-14T08:37:49;39.70;38.10
37478;DHT22;23334;54.316;10.182;2023-06-14T08:40:22;39.10;38.60
37478;DHT22;23334;54.316;10.182;2023-06-14T08:42:51;39.20;39.90
37478;DHT22;23334;54.316;10.182;2023-06-14T08:45:18;38.60;40.50
37478;DHT22;23334;54.316;10.182;2023-06-14T08:47:45;38.80;40.60
37478;DHT22;23334;54.316;10.182;2023-06-14T08:50:11;38.60;40.00
37478;DHT22;23334;54.316;10.182;2023-06-14T08:52:38;39.10;40.00
37478;DHT22;23334;54.316;10.182;2023-06-14T08:55:11;38.90;39.70
37478;DHT22;23334;54.316;10.182;2023-06-14T08:57:38;39.40;38.10
37478;DHT22;23334;54.316;10.182;2023-06-14T09:07:29;38.00;41.20
37478;DHT22;23334;54.316;10.182;2023-06-14T09:10:13;38.30;39.70
37478;DHT22;23334;54.316;10.182;2023-06-14T09:15:05;38.20;40.70
37478;DHT22;23334;54.316;10.182;2023-06-14T09:20:00;37.60;38.90
37478;DHT22;23334;54.316;10.182;2023-06-14T09:22:29;37.00;39.20
37478;DHT22;23334;54.316;10.182;2023-06-14T09:32:12;36.60;38.90
37478;DHT22;23334;54.316;10.182;2023-06-14T09:34:38;37.30;38.10
37478;DHT22;23334;54.316;10.182;2023-06-14T09:37:04;37.60;37.30
37478;DHT22;23334;54.316;10.182;2023-06-14T09:39:30;37.70;37.00
37478;DHT22;23334;54.316;10.182;2023-06-14T09:41:55;37.90;36.40
37478;DHT22;23334;54.316;10.182;2023-06-14T09:44:21;38.00;38.00
37478;DHT22;23334;54.316;10.182;2023-06-14T09:46:50;37.90;37.10
37478;DHT22;23334;54.316;10.182;2023-06-14T09:49:16;38.20;37.80
37478;DHT22;23334;54.316;10.182;2023-06-14T09:51:45;38.00;35.90
37478;DHT22;23334;54.316;10.182;2023-06-14T09:54:16;37.40;37.70
37478;DHT22;23334;54.316;10.182;2023-06-14T09:56:44;37.80;36.90
37478;DHT22;23334;54.316;10.182;2023-06-14T10:01:43;38.50;35.70
37478;DHT22;23334;54.316;10.182;2023-06-14T10:06:38;37.60;38.20
37478;DHT22;23334;54.316;10.182;2023-06-14T10:09:05;37.40;36.70
37478;DHT22;23334;54.316;10.182;2023-06-14T10:13:58;36.80;36.40
37478;DHT22;23334;54.316;10.182;2023-06-14T10:16:31;36.70;37.70
37478;DHT22;23334;54.316;10.182;2023-06-14T10:19:21;36.10;38.70
37478;DHT22;23334;54.316;10.182;2023-06-14T10:22:17;34.60;38.60
37478;DHT22;23334;54.316;10.182;2023-06-14T10:24:44;33.30;39.80
37478;DHT22;23334;54.316;10.182;2023-06-14T10:27:13;32.90;41.90
37478;DHT22;23334;54.316;10.182;2023-06-14T10:32:21;31.50;41.50
37478;DHT22;23334;54.316;10.182;2023-06-14T10:35:02;30.70;42.70
37478;DHT22;23334;54.316;10.182;2023-06-14T10:39:55;28.80;48.40
37478;DHT22;23334;54.316;10.182;2023-06-14T10:42:21;28.50;49.10
37478;DHT22;23334;54.316;10.182;2023-06-14T10:44:51;28.50;48.40
37478;DHT22;23334;54.316;10.182;2023-06-14T10:47:36;28.60;52.20
37478;DHT22;23334;54.316;10.182;2023-06-14T10:50:05;28.70;49.30
37478;DHT22;23334;54.316;10.182;2023-06-14T10:52:33;28.70;50.00
37478;DHT22;23334;54.316;10.182;2023-06-14T10:55:12;28.40;48.70
37478;DHT22;23334;54.316;10.182;2023-06-14T11:05:30;27.50;51.80
37478;DHT22;23334;54.316;10.182;2023-06-14T11:10:39;27.30;51.00
37478;DHT22;23334;54.316;10.182;2023-06-14T11:13:09;27.20;55.50
37478;DHT22;23334;54.316;10.182;2023-06-14T11:15:36;27.30;55.30
37478;DHT22;23334;54.316;10.182;2023-06-14T11:18:04;27.40;52.00
37478;DHT22;23334;54.316;10.182;2023-06-14T11:20:31;27.30;52.70
37478;DHT22;23334;54.316;10.182;2023-06-14T11:22:57;27.40;53.30
37478;DHT22;23334;54.316;10.182;2023-06-14T11:27:50;26.70;55.00
37478;DHT22;23334;54.316;10.182;2023-06-14T11:30:16;26.70;54.00
37478;DHT22;23334;54.316;10.182;2023-06-14T11:32:41;26.60;54.80
37478;DHT22;23334;54.316;10.182;2023-06-14T11:35:08;26.70;58.90
37478;DHT22;23334;54.316;10.182;2023-06-14T11:37:36;26.90;56.20
37478;DHT22;23334;54.316;10.182;2023-06-14T11:40:04;26.70;54.30
37478;DHT22;23334;54.316;10.182;2023-06-14T11:45:03;26.80;56.20
37478;DHT22;23334;54.316;10.182;2023-06-14T11:47:34;26.90;55.50
37478;DHT22;23334;54.316;10.182;2023-06-14T11:52:26;26.60;54.70
37478;DHT22;23334;54.316;10.182;2023-06-14T11:54:53;26.20;56.30
37478;DHT22;23334;54.316;10.182;2023-06-14T11:57:19;25.90;55.80
37478;DHT22;23334;54.316;10.182;2023-06-14T11:59:44;26.10;57.40
37478;DHT22;23334;54.316;10.182;2023-06-14T12:02:18;26.00;55.80
37478;DHT22;23334;54.316;10.182;2023-06-14T12:04:46;25.70;54.30
37478;DHT22;23334;54.316;10.182;2023-06-14T12:07:13;25.70;56.10
37478;DHT22;23334;54.316;10.182;2023-06-14T12:12:28;25.80;58.40
37478;DHT22;23334;54.316;10.182;2023-06-14T12:14:57;26.00;62.30
37478;DHT22;23334;54.316;10.182;2023-06-14T12:17:22;26.00;57.70
37478;DHT22;23334;54.316;10.182;2023-06-14T12:19:49;25.90;56.40
37478;DHT22;23334;54.316;10.182;2023-06-14T12:22:16;25.70;57.90
37478;DHT22;23334;54.316;10.182;2023-06-14T12:24:45;25.80;57.30
37478;DHT22;23334;54.316;10.182;2023-06-14T12:27:11;25.70;57.00
37478;DHT22;23334;54.316;10.182;2023-06-14T12:29:41;25.60;59.30
37478;DHT22;23334;54.316;10.182;2023-06-14T12:41:53;25.40;60.70
37478;DHT22;23334;54.316;10.182;2023-06-14T12:46:45;25.50;58.20
37478;DHT22;23334;54.316;10.182;2023-06-14T12:49:11;25.50;58.80
37478;DHT22;23334;54.316;10.182;2023-06-14T12:51:38;25.40;58.30
37478;DHT22;23334;54.316;10.182;2023-06-14T12:54:04;25.40;59.20
37478;DHT22;23334;54.316;10.182;2023-06-14T12:56:30;25.30;58.20
37478;DHT22;23334;54.316;10.182;2023-06-14T13:03:47;25.30;59.10
37478;DHT22;23334;54.316;10.182;2023-06-14T13:06:13;25.20;61.50
37478;DHT22;23334;54.316;10.182;2023-06-14T13:08:39;25.10;59.00
37478;DHT22;23334;54.316;10.182;2023-06-14T13:13:30;24.70;61.90
37478;DHT22;23334;54.316;10.182;2023-06-14T13:18:22;24.80;59.90
37478;DHT22;23334;54.316;10.182;2023-06-14T13:20:47;24.80;61.50
37478;DHT22;23334;54.316;10.182;2023-06-14T13:23:13;25.00;62.50
37478;DHT22;23334;54.316;10.182;2023-06-14T13:25:39;25.00;62.90
37478;DHT22;23334;54.316;10.182;2023-06-14T13:28:05;25.10;62.60
37478;DHT22;23334;54.316;10.182;2023-06-14T13:30:31;24.90;58.80
37478;DHT22;23334;54.316;10.182;2023-06-14T13:32:57;24.80;59.10
37478;DHT22;23334;54.316;10.182;2023-06-14T13:35:24;24.60;61.50
37478;DHT22;23334;54.316;10.182;2023-06-14T13:40:15;24.60;63.20
37478;DHT22;23334;54.316;10.182;2023-06-14T13:42:41;24.60;59.60
37478;DHT22;23334;54.316;10.182;2023-06-14T13:45:07;24.70;59.80
37478;DHT22;23334;54.316;10.182;2023-06-14T13:47:33;24.70;61.40
37478;DHT22;23334;54.316;10.182;2023-06-14T13:52:25;24.80;62.50
37478;DHT22;23334;54.316;10.182;2023-06-14T13:54:51;24.80;58.60
37478;DHT22;23334;54.316;10.182;2023-06-14T13:57:17;24.80;58.80
37478;DHT22;23334;54.316;10.182;2023-06-14T13:59:43;24.80;56.70
37478;DHT22;23334;54.316;10.182;2023-06-14T14:02:12;24.60;60.80
37478;DHT22;23334;54.316;10.182;2023-06-14T14:04:39;24.70;61.00
37478;DHT22;23334;54.316;10.182;2023-06-14T14:07:05;24.60;59.10
37478;DHT22;23334;54.316;10.182;2023-06-14T14:09:31;24.50;59.40
37478;DHT22;23334;54.316;10.182;2023-06-14T14:11:58;24.50;60.10
37478;DHT22;23334;54.316;10.182;2023-06-14T14:14:24;24.50;56.80
37478;DHT22;23334;54.316;10.182;2023-06-14T14:16:50;24.50;57.70
37478;DHT22;23334;54.316;10.182;2023-06-14T14:21:44;24.30;61.10
37478;DHT22;23334;54.316;10.182;2023-06-14T14:26:36;24.00;59.50
37478;DHT22;23334;54.316;10.182;2023-06-14T14:29:01;24.00;58.90
37478;DHT22;23334;54.316;10.182;2023-06-14T14:31:28;24.00;59.10
37478;DHT22;23334;54.316;10.182;2023-06-14T14:41:12;24.30;56.80
37478;DHT22;23334;54.316;10.182;2023-06-14T14:43:38;24.40;58.60
37478;DHT22;23334;54.316;10.182;2023-06-14T14:50:55;24.30;59.50
37478;DHT22;23334;54.316;10.182;2023-06-14T14:53:20;24.20;58.20
37478;DHT22;23334;54.316;10.182;2023-06-14T14:55:46;24.30;58.70
37478;DHT22;23334;54.316;10.182;2023-06-14T14:58:12;24.30;59.30
37478;DHT22;23334;54.316;10.182;2023-06-14T15:00:38;24.20;59.90
37478;DHT22;23334;54.316;10.182;2023-06-14T15:03:04;24.20;60.50
37478;DHT22;23334;54.316;10.182;2023-06-14T15:12:47;24.00;60.10
37478;DHT22;23334;54.316;10.182;2023-06-14T15:15:13;23.90;57.20
37478;DHT22;23334;54.316;10.182;2023-06-14T15:17:38;23.80;59.50
37478;DHT22;23334;54.316;10.182;2023-06-14T15:20:04;23.70;59.30
37478;DHT22;23334;54.316;10.182;2023-06-14T15:22:31;23.60;59.80
37478;DHT22;23334;54.316;10.182;2023-06-14T15:24:56;23.60;59.80
37478;DHT22;23334;54.316;10.182;2023-06-14T15:27:22;23.70;58.00
37478;DHT22;23334;54.316;10.182;2023-06-14T15:29:48;23.60;60.50
37478;DHT22;23334;54.316;10.182;2023-06-14T15:32:13;23.70;61.50
37478;DHT22;23334;54.316;10.182;2023-06-14T15:34:38;23.60;60.20
37478;DHT22;23334;54.316;10.182;2023-06-14T15:37:05;23.70;61.50
37478;DHT22;23334;54.316;10.182;2023-06-14T15:39:31;23.80;64.10
37478;DHT22;23334;54.316;10.182;2023-06-14T15:41:57;23.90;65.20
37478;DHT22;23334;54.316;10.182;2023-06-14T15:44:23;23.90;64.20
37478;DHT22;23334;54.316;10.182;2023-06-14T15:46:49;23.90;61.50
37478;DHT22;23334;54.316;10.182;2023-06-14T15:49:14;23.70;59.00
37478;DHT22;23334;54.316;10.182;2023-06-14T15:51:40;23.70;59.40
37478;DHT22;23334;54.316;10.182;2023-06-14T15:54:05;23.60;61.30
37478;DHT22;23334;54.316;10.182;2023-06-14T15:56:32;23.50;60.50
37478;DHT22;23334;54.316;10.182;2023-06-14T15:58:57;23.50;64.10
37478;DHT22;23334;54.316;10.182;2023-06-14T16:03:50;23.30;62.50
37478;DHT22;23334;54.316;10.182;2023-06-14T16:06:15;23.00;64.10
37478;DHT22;23334;54.316;10.182;2023-06-14T16:15:58;22.90;66.00
37478;DHT22;23334;54.316;10.182;2023-06-14T16:18:24;22.90;65.70
37478;DHT22;23334;54.316;10.182;2023-06-14T16:20:49;22.80;65.10
37478;DHT22;23334;54.316;10.182;2023-06-14T16:25:41;22.80;67.30
37478;DHT22;23334;54.316;10.182;2023-06-14T16:30:33;22.70;66.00
37478;DHT22;23334;54.316;10.182;2023-06-14T16:32:58;22.60;67.70
37478;DHT22;23334;54.316;10.182;2023-06-14T16:35:24;22.50;64.80
37478;DHT22;23334;54.316;10.182;2023-06-14T16:42:41;22.30;67.70
37478;DHT22;23334;54.316;10.182;2023-06-14T16:45:07;22.30;67.90
37478;DHT22;23334;54.316;10.182;2023-06-14T16:47:33;22.30;66.20
37478;DHT22;23334;54.316;10.182;2023-06-14T16:49:58;22.20;66.10
37478;DHT22;23334;54.316;10.182;2023-06-14T16:52:23;22.20;65.70
37478;DHT22;23334;54.316;10.182;2023-06-14T16:54:49;22.10;64.80
37478;DHT22;23334;54.316;10.182;2023-06-14T16:59:40;22.00;66.70
37478;DHT22;23334;54.316;10.182;2023-06-14T17:04:32;21.90;66.60
37478;DHT22;23334;54.316;10.182;2023-06-14T17:06:58;21.90;66.90
37478;DHT22;23334;54.316;10.182;2023-06-14T17:09:23;21.90;66.80
37478;DHT22;23334;54.316;10.182;2023-06-14T17:11:49;21.80;66.40
37478;DHT22;23334;54.316;10.182;2023-06-14T17:14:15;21.70;67.30
37478;DHT22;23334;54.316;10.182;2023-06-14T17:19:06;21.50;66.20
37478;DHT22;23334;54.316;10.182;2023-06-14T17:26:25;21.30;66.70
37478;DHT22;23334;54.316;10.182;2023-06-14T17:28:54;21.30;68.40
37478;DHT22;23334;54.316;10.182;2023-06-14T17:31:20;21.20;70.00
37478;DHT22;23334;54.316;10.182;2023-06-14T17:33:45;21.20;66.30
37478;DHT22;23334;54.316;10.182;2023-06-14T17:38:37;21.00;66.90
37478;DHT22;23334;54.316;10.182;2023-06-14T17:41:03;21.00;68.20
37478;DHT22;23334;54.316;10.182;2023-06-14T17:43:35;20.90;68.10
37478;DHT22;23334;54.316;10.182;2023-06-14T17:53:24;20.70;70.10
37478;DHT22;23334;54.316;10.182;2023-06-14T17:55:49;20.60;71.60
37478;DHT22;23334;54.316;10.182;2023-06-14T18:00:41;20.50;71.60
37478;DHT22;23334;54.316;10.182;2023-06-14T18:03:06;20.50;71.10
37478;DHT22;23334;54.316;10.182;2023-06-14T18:05:32;20.40;72.90
37478;DHT22;23334;54.316;10.182;2023-06-14T18:27:25;19.80;75.10
37478;DHT22;23334;54.316;10.182;2023-06-14T18:29:50;19.70;75.30
37478;DHT22;23334;54.316;10.182;2023-06-14T18:32:16;19.60;77.30
37478;DHT22;23334;54.316;10.182;2023-06-14T18:37:07;19.60;75.30
37478;DHT22;23334;54.316;10.182;2023-06-14T18:39:33;19.60;77.30
37478;DHT22;23334;54.316;10.182;2023-06-14T18:41:59;19.40;77.90
37478;DHT22;23334;54.316;10.182;2023-06-14T18:44:24;19.30;78.20
37478;DHT22;23334;54.316;10.182;2023-06-14T18:46:50;19.30;77.30
37478;DHT22;23334;54.316;10.182;2023-06-14T18:49:16;19.20;77.80
37478;DHT22;23334;54.316;10.182;2023-06-14T18:54:07;19.00;77.20
37478;DHT22;23334;54.316;10.182;2023-06-14T18:56:33;18.90;78.70
37478;DHT22;23334;54.316;10.182;2023-06-14T18:58:58;18.80;80.60
37478;DHT22;23334;54.316;10.182;2023-06-14T19:01:26;18.70;80.30
37478;DHT22;23334;54.316;10.182;2023-06-14T19:03:51;18.60;82.70
37478;DHT22;23334;54.316;10.182;2023-06-14T19:06:17;18.50;84.30
37478;DHT22;23334;54.316;10.182;2023-06-14T19:08:42;18.30;85.50
37478;DHT22;23334;54.316;10.182;2023-06-14T19:11:08;18.20;88.20
37478;DHT22;23334;54.316;10.182;2023-06-14T19:13:33;18.00;90.10
37478;DHT22;23334;54.316;10.182;2023-06-14T19:15:59;17.80;90.90
37478;DHT22;23334;54.316;10.182;2023-06-14T19:18:25;17.70;91.90
37478;DHT22;23334;54.316;10.182;2023-06-14T19:20:51;17.50;93.00
37478;DHT22;23334;54.316;10.182;2023-06-14T19:23:16;17.30;93.80
37478;DHT22;23334;54.316;10.182;2023-06-14T19:25:42;17.20;94.70
37478;DHT22;23334;54.316;10.182;2023-06-14T19:30:34;16.90;96.00
37478;DHT22;23334;54.316;10.182;2023-06-14T19:33:00;16.70;97.40
37478;DHT22;23334;54.316;10.182;2023-06-14T19:35:25;16.60;98.40
37478;DHT22;23334;54.316;10.182;2023-06-14T19:37:51;16.40;99.50
37478;DHT22;23334;54.316;10.182;2023-06-14T19:40:16;16.30;99.90
37478;DHT22;23334;54.316;10.182;2023-06-14T19:42:43;16.00;99.90
37478;DHT22;23334;54.316;10.182;2023-06-14T19:45:09;15.90;99.90
37478;DHT22;23334;54.316;10.182;2023-06-14T19:50:01;15.60;99.90
37478;DHT22;23334;54.316;10.182;2023-06-14T19:52:26;15.40;99.90
37478;DHT22;23334;54.316;10.182;2023-06-14T19:54:52;15.30;99.90
37478;DHT22;23334;54.316;10.182;2023-06-14T19:57:17;15.10;99.90
37478;DHT22;23334;54.316;10.182;2023-06-14T20:02:10;14.90;99.90
37478;DHT22;23334;54.316;10.182;2023-06-14T20:04:36;14.80;99.90
37478;DHT22;23334;54.316;10.182;2023-06-14T20:07:04;14.70;99.90
37478;DHT22;23334;54.316;10.182;2023-06-14T20:09:33;14.60;99.90
37478;DHT22;23334;54.316;10.182;2023-06-14T20:11:59;14.50;99.90
37478;DHT22;23334;54.316;10.182;2023-06-14T20:14:24;14.40;99.90
37478;DHT22;23334;54.316;10.182;2023-06-14T20:16:50;14.30;99.90
37478;DHT22;23334;54.316;10.182;2023-06-14T20:19:17;14.20;99.90
37478;DHT22;23334;54.316;10.182;2023-06-14T20:24:08;14.00;99.90
37478;DHT22;23334;54.316;10.182;2023-06-14T20:29:01;13.80;99.90
37478;DHT22;23334;54.316;10.182;2023-06-14T20:31:26;13.70;99.90
37478;DHT22;23334;54.316;10.182;2023-06-14T20:41:10;13.50;99.90
37478;DHT22;23334;54.316;10.182;2023-06-14T20:46:02;13.40;99.90
37478;DHT22;23334;54.316;10.182;2023-06-14T20:48:28;13.30;99.90
37478;DHT22;23334;54.316;10.182;2023-06-14T20:50:54;13.30;99.90
37478;DHT22;23334;54.316;10.182;2023-06-14T21:00:40;13.10;99.90
37478;DHT22;23334;54.316;10.182;2023-06-14T21:03:06;13.00;99.90
37478;DHT22;23334;54.316;10.182;2023-06-14T21:05:32;12.90;99.90
37478;DHT22;23334;54.316;10.182;2023-06-14T21:12:56;12.70;99.90
37478;DHT22;23334;54.316;10.182;2023-06-14T21:15:22;12.70;99.90
37478;DHT22;23334;54.316;10.182;2023-06-14T21:17:54;12.70;99.90
37478;DHT22;23334;54.316;10.182;2023-06-14T21:20:21;12.60;99.90
37478;DHT22;23334;54.316;10.182;2023-06-14T21:25:16;12.50;99.90
37478;DHT22;23334;54.316;10.182;2023-06-14T21:27:42;12.50;99.90
37478;DHT22;23334;54.316;10.182;2023-06-14T21:30:08;12.40;99.90
37478;DHT22;23334;54.316;10.182;2023-06-14T21:32:34;12.30;99.90
37478;DHT22;23334;54.316;10.182;2023-06-14T21:35:00;12.30;99.90
37478;DHT22;23334;54.316;10.182;2023-06-14T21:37:26;12.20;99.90
37478;DHT22;23334;54.316;10.182;2023-06-14T21:39:51;12.20;99.90
37478;DHT22;23334;54.316;10.182;2023-06-14T21:47:13;12.00;99.90
37478;DHT22;23334;54.316;10.182;2023-06-14T21:49:40;11.90;99.90
37478;DHT22;23334;54.316;10.182;2023-06-14T21:52:07;11.90;99.90
37478;DHT22;23334;54.316;10.182;2023-06-14T21:54:33;11.80;99.90
37478;DHT22;23334;54.316;10.182;2023-06-14T21:56:58;11.80;99.90
37478;DHT22;23334;54.316;10.182;2023-06-14T21:59:24;11.80;99.90
37478;DHT22;23334;54.316;10.182;2023-06-14T22:01:49;11.80;99.90
37478;DHT22;23334;54.316;10.182;2023-06-14T22:04:15;11.80;99.90
37478;DHT22;23334;54.316;10.182;2023-06-14T22:06:40;11.80;99.90
37478;DHT22;23334;54.316;10.182;2023-06-14T22:09:10;11.70;99.90
37478;DHT22;23334;54.316;10.182;2023-06-14T22:11:43;11.70;99.90
37478;DHT22;23334;54.316;10.182;2023-06-14T22:16:40;11.60;99.90
37478;DHT22;23334;54.316;10.182;2023-06-14T22:21:34;11.60;99.90
37478;DHT22;23334;54.316;10.182;2023-06-14T22:28:52;11.40;99.90
37478;DHT22;23334;54.316;10.182;2023-06-14T22:31:18;11.30;99.90
37478;DHT22;23334;54.316;10.182;2023-06-14T22:36:12;11.30;99.90
37478;DHT22;23334;54.316;10.182;2023-06-14T22:38:41;11.30;99.90
37478;DHT22;23334;54.316;10.182;2023-06-14T22:41:07;11.20;99.90